sensor_id;sensor_type;location;lat;lon;timestamp;P1;durP1;ratioP1;P2;durP2;ratioP2
74371;SDS011;62885;51.374;6.170;2024-02-21T00:01:24;20.15;;;7.95;;
74371;SDS011;62885;51.374;6.170;2024-02-21T00:03:49;19.15;;;6.80;;
74371;SDS011;62885;51.374;6.170;2024-02-21T00:06:15;14.93;;;6.82;;
74371;SDS011;62885;51.374;6.170;2024-02-21T00:08:40;19.50;;;7.47;;
74371;SDS011;62885;51.374;6.170;2024-02-21T00:11:05;18.58;;;7.20;;
74371;SDS011;62885;51.374;6.170;2024-02-21T00:13:31;20.02;;;8.07;;
74371;SDS011;62885;51.374;6.170;2024-02-21T00:15:56;21.58;;;7.68;;
74371;SDS011;62885;51.374;6.170;2024-02-21T00:18:22;18.63;;;7.38;;
74371;SDS011;62885;51.374;6.170;2024-02-21T00:20:47;16.77;;;7.30;;
74371;SDS011;62885;51.374;6.170;2024-02-21T00:23:13;16.13;;;6.93;;
74371;SDS011;62885;51.374;6.170;2024-02-21T00:25:38;18.77;;;7.93;;
74371;SDS011;62885;51.374;6.170;2024-02-21T00:28:03;16.35;;;7.03;;
74371;SDS011;62885;51.374;6.170;2024-02-21T00:30:30;20.17;;;8.02;;
74371;SDS011;62885;51.374;6.170;2024-02-21T00:32:56;22.75;;;8.88;;
74371;SDS011;62885;51.374;6.170;2024-02-21T00:35:21;15.57;;;7.80;;
74371;SDS011;62885;51.374;6.170;2024-02-21T00:37:47;17.05;;;7.85;;
74371;SDS011;62885;51.374;6.170;2024-02-21T00:40:12;17.30;;;7.13;;
74371;SDS011;62885;51.374;6.170;2024-02-21T00:42:37;20.55;;;8.35;;
74371;SDS011;62885;51.374;6.170;2024-02-21T00:45:03;15.27;;;8.10;;
74371;SDS011;62885;51.374;6.170;2024-02-21T00:47:29;15.52;;;7.32;;
74371;SDS011;62885;51.374;6.170;2024-02-21T00:49:54;20.48;;;7.68;;
74371;SDS011;62885;51.374;6.170;2024-02-21T00:52:20;18.73;;;8.57;;
74371;SDS011;62885;51.374;6.170;2024-02-21T00:54:45;17.73;;;7.13;;
74371;SDS011;62885;51.374;6.170;2024-02-21T00:57:11;20.50;;;6.82;;
74371;SDS011;62885;51.374;6.170;2024-02-21T00:59:37;18.67;;;8.00;;
74371;SDS011;62885;51.374;6.170;2024-02-21T01:02:02;18.27;;;6.72;;
74371;SDS011;62885;51.374;6.170;2024-02-21T01:04:28;17.67;;;6.55;;
74371;SDS011;62885;51.374;6.170;2024-02-21T01:06:53;18.67;;;6.40;;
74371;SDS011;62885;51.374;6.170;2024-02-21T01:09:18;17.42;;;6.68;;
74371;SDS011;62885;51.374;6.170;2024-02-21T01:11:44;13.57;;;6.95;;
74371;SDS011;62885;51.374;6.170;2024-02-21T01:14:09;16.92;;;7.05;;
74371;SDS011;62885;51.374;6.170;2024-02-21T01:16:36;16.42;;;6.97;;
74371;SDS011;62885;51.374;6.170;2024-02-21T01:19:01;17.27;;;6.80;;
74371;SDS011;62885;51.374;6.170;2024-02-21T01:21:26;17.73;;;7.85;;
74371;SDS011;62885;51.374;6.170;2024-02-21T01:23:52;17.80;;;7.03;;
74371;SDS011;62885;51.374;6.170;2024-02-21T01:26:17;19.77;;;6.95;;
74371;SDS011;62885;51.374;6.170;2024-02-21T01:28:43;16.48;;;6.88;;
74371;SDS011;62885;51.374;6.170;2024-02-21T01:31:08;20.02;;;6.50;;
74371;SDS011;62885;51.374;6.170;2024-02-21T01:33:34;18.13;;;6.50;;
74371;SDS011;62885;51.374;6.170;2024-02-21T01:36:04;16.90;;;6.63;;
74371;SDS011;62885;51.374;6.170;2024-02-21T01:38:31;15.18;;;6.55;;
74371;SDS011;62885;51.374;6.170;2024-02-21T01:40:57;15.65;;;7.03;;
74371;SDS011;62885;51.374;6.170;2024-02-21T01:43:25;17.23;;;6.13;;
74371;SDS011;62885;51.374;6.170;2024-02-21T01:45:53;16.02;;;6.20;;
74371;SDS011;62885;51.374;6.170;2024-02-21T01:48:20;15.45;;;6.43;;
74371;SDS011;62885;51.374;6.170;2024-02-21T01:50:47;13.45;;;6.35;;
74371;SDS011;62885;51.374;6.170;2024-02-21T01:53:14;14.48;;;5.93;;
74371;SDS011;62885;51.374;6.170;2024-02-21T01:55:46;15.40;;;6.70;;
74371;SDS011;62885;51.374;6.170;2024-02-21T01:58:15;15.05;;;6.10;;
74371;SDS011;62885;51.374;6.170;2024-02-21T02:00:42;13.63;;;6.72;;
74371;SDS011;62885;51.374;6.170;2024-02-21T02:03:12;13.30;;;5.53;;
74371;SDS011;62885;51.374;6.170;2024-02-21T02:05:47;13.25;;;6.22;;
74371;SDS011;62885;51.374;6.170;2024-02-21T02:08:18;16.77;;;5.88;;
74371;SDS011;62885;51.374;6.170;2024-02-21T02:10:44;15.43;;;5.85;;
74371;SDS011;62885;51.374;6.170;2024-02-21T02:13:13;12.60;;;6.18;;
74371;SDS011;62885;51.374;6.170;2024-02-21T02:15:43;13.18;;;5.15;;
74371;SDS011;62885;51.374;6.170;2024-02-21T02:18:10;14.55;;;5.82;;
74371;SDS011;62885;51.374;6.170;2024-02-21T02:20:37;16.05;;;6.40;;
74371;SDS011;62885;51.374;6.170;2024-02-21T02:25:47;15.40;;;5.22;;
74371;SDS011;62885;51.374;6.170;2024-02-21T02:28:19;11.63;;;5.45;;
74371;SDS011;62885;51.374;6.170;2024-02-21T02:30:45;13.98;;;5.55;;
74371;SDS011;62885;51.374;6.170;2024-02-21T02:33:10;11.35;;;5.55;;
74371;SDS011;62885;51.374;6.170;2024-02-21T02:35:35;9.45;;;5.13;;
74371;SDS011;62885;51.374;6.170;2024-02-21T02:38:01;12.70;;;5.75;;
74371;SDS011;62885;51.374;6.170;2024-02-21T02:40:28;11.70;;;4.32;;
74371;SDS011;62885;51.374;6.170;2024-02-21T02:42:53;11.73;;;5.13;;
74371;SDS011;62885;51.374;6.170;2024-02-21T02:45:20;11.18;;;4.85;;
74371;SDS011;62885;51.374;6.170;2024-02-21T02:47:47;12.07;;;5.05;;
74371;SDS011;62885;51.374;6.170;2024-02-21T02:50:13;11.90;;;4.68;;
74371;SDS011;62885;51.374;6.170;2024-02-21T02:52:39;9.48;;;5.07;;
74371;SDS011;62885;51.374;6.170;2024-02-21T02:55:04;10.20;;;4.88;;
74371;SDS011;62885;51.374;6.170;2024-02-21T02:57:30;10.50;;;4.20;;
74371;SDS011;62885;51.374;6.170;2024-02-21T02:59:56;11.50;;;4.53;;
74371;SDS011;62885;51.374;6.170;2024-02-21T03:02:21;11.82;;;4.93;;
74371;SDS011;62885;51.374;6.170;2024-02-21T03:04:47;9.73;;;4.78;;
74371;SDS011;62885;51.374;6.170;2024-02-21T03:07:13;12.10;;;4.63;;
74371;SDS011;62885;51.374;6.170;2024-02-21T03:09:42;10.45;;;4.95;;
74371;SDS011;62885;51.374;6.170;2024-02-21T03:12:10;14.15;;;5.00;;
74371;SDS011;62885;51.374;6.170;2024-02-21T03:14:36;12.50;;;5.30;;
74371;SDS011;62885;51.374;6.170;2024-02-21T03:17:02;11.68;;;4.65;;
74371;SDS011;62885;51.374;6.170;2024-02-21T03:19:28;13.40;;;5.30;;
74371;SDS011;62885;51.374;6.170;2024-02-21T03:21:54;13.63;;;5.05;;
74371;SDS011;62885;51.374;6.170;2024-02-21T03:24:19;13.15;;;4.35;;
74371;SDS011;62885;51.374;6.170;2024-02-21T03:26:45;12.57;;;4.40;;
74371;SDS011;62885;51.374;6.170;2024-02-21T03:29:14;12.10;;;4.30;;
74371;SDS011;62885;51.374;6.170;2024-02-21T03:31:40;11.50;;;5.30;;
74371;SDS011;62885;51.374;6.170;2024-02-21T03:34:05;14.20;;;5.07;;
74371;SDS011;62885;51.374;6.170;2024-02-21T03:36:30;14.80;;;5.50;;
74371;SDS011;62885;51.374;6.170;2024-02-21T03:38:56;10.57;;;4.47;;
74371;SDS011;62885;51.374;6.170;2024-02-21T03:41:21;11.20;;;3.70;;
74371;SDS011;62885;51.374;6.170;2024-02-21T03:43:46;10.48;;;4.32;;
74371;SDS011;62885;51.374;6.170;2024-02-21T03:46:12;11.18;;;4.57;;
74371;SDS011;62885;51.374;6.170;2024-02-21T03:48:37;9.90;;;3.58;;
74371;SDS011;62885;51.374;6.170;2024-02-21T03:51:03;13.80;;;3.45;;
74371;SDS011;62885;51.374;6.170;2024-02-21T03:53:29;10.13;;;4.28;;
74371;SDS011;62885;51.374;6.170;2024-02-21T03:55:55;11.73;;;3.90;;
74371;SDS011;62885;51.374;6.170;2024-02-21T03:58:21;10.70;;;4.45;;
74371;SDS011;62885;51.374;6.170;2024-02-21T04:00:47;12.40;;;3.88;;
74371;SDS011;62885;51.374;6.170;2024-02-21T04:03:12;10.82;;;4.68;;
74371;SDS011;62885;51.374;6.170;2024-02-21T04:05:38;8.23;;;4.00;;
74371;SDS011;62885;51.374;6.170;2024-02-21T04:08:06;13.07;;;3.67;;
74371;SDS011;62885;51.374;6.170;2024-02-21T04:10:33;9.38;;;2.90;;
74371;SDS011;62885;51.374;6.170;2024-02-21T04:12:58;11.25;;;3.65;;
74371;SDS011;62885;51.374;6.170;2024-02-21T04:15:23;8.60;;;3.35;;
74371;SDS011;62885;51.374;6.170;2024-02-21T04:17:49;12.32;;;3.63;;
74371;SDS011;62885;51.374;6.170;2024-02-21T04:20:16;12.43;;;4.25;;
74371;SDS011;62885;51.374;6.170;2024-02-21T04:22:44;11.05;;;3.05;;
74371;SDS011;62885;51.374;6.170;2024-02-21T04:25:11;7.47;;;3.38;;
74371;SDS011;62885;51.374;6.170;2024-02-21T04:27:37;8.43;;;3.50;;
74371;SDS011;62885;51.374;6.170;2024-02-21T04:30:03;8.13;;;3.15;;
74371;SDS011;62885;51.374;6.170;2024-02-21T04:32:29;6.20;;;2.80;;
74371;SDS011;62885;51.374;6.170;2024-02-21T04:34:55;11.63;;;3.50;;
74371;SDS011;62885;51.374;6.170;2024-02-21T04:37:20;10.75;;;3.75;;
74371;SDS011;62885;51.374;6.170;2024-02-21T04:39:45;12.55;;;3.67;;
74371;SDS011;62885;51.374;6.170;2024-02-21T04:42:11;9.23;;;3.95;;
74371;SDS011;62885;51.374;6.170;2024-02-21T04:44:37;8.55;;;3.63;;
74371;SDS011;62885;51.374;6.170;2024-02-21T04:47:03;13.80;;;4.30;;
74371;SDS011;62885;51.374;6.170;2024-02-21T04:49:29;8.55;;;4.32;;
74371;SDS011;62885;51.374;6.170;2024-02-21T04:51:54;11.38;;;3.83;;
74371;SDS011;62885;51.374;6.170;2024-02-21T04:54:20;10.30;;;3.45;;
74371;SDS011;62885;51.374;6.170;2024-02-21T04:56:45;14.15;;;4.65;;
74371;SDS011;62885;51.374;6.170;2024-02-21T04:59:10;10.43;;;3.53;;
74371;SDS011;62885;51.374;6.170;2024-02-21T05:01:36;12.52;;;3.92;;
74371;SDS011;62885;51.374;6.170;2024-02-21T05:04:01;10.15;;;4.20;;
74371;SDS011;62885;51.374;6.170;2024-02-21T05:06:27;13.07;;;4.82;;
74371;SDS011;62885;51.374;6.170;2024-02-21T05:08:53;11.18;;;4.05;;
74371;SDS011;62885;51.374;6.170;2024-02-21T05:11:20;15.55;;;4.43;;
74371;SDS011;62885;51.374;6.170;2024-02-21T05:13:45;12.15;;;4.35;;
74371;SDS011;62885;51.374;6.170;2024-02-21T05:16:11;10.97;;;4.50;;
74371;SDS011;62885;51.374;6.170;2024-02-21T05:18:36;8.63;;;4.30;;
74371;SDS011;62885;51.374;6.170;2024-02-21T05:21:01;11.18;;;4.10;;
74371;SDS011;62885;51.374;6.170;2024-02-21T05:23:27;12.48;;;4.85;;
74371;SDS011;62885;51.374;6.170;2024-02-21T05:25:52;14.63;;;4.43;;
74371;SDS011;62885;51.374;6.170;2024-02-21T05:28:18;10.23;;;4.05;;
74371;SDS011;62885;51.374;6.170;2024-02-21T05:30:43;12.57;;;4.28;;
74371;SDS011;62885;51.374;6.170;2024-02-21T05:33:08;11.60;;;4.10;;
74371;SDS011;62885;51.374;6.170;2024-02-21T05:35:34;10.70;;;4.82;;
74371;SDS011;62885;51.374;6.170;2024-02-21T05:37:59;12.38;;;3.83;;
74371;SDS011;62885;51.374;6.170;2024-02-21T05:40:25;10.07;;;4.63;;
74371;SDS011;62885;51.374;6.170;2024-02-21T05:42:52;13.77;;;3.90;;
74371;SDS011;62885;51.374;6.170;2024-02-21T05:45:17;12.18;;;5.20;;
74371;SDS011;62885;51.374;6.170;2024-02-21T05:47:43;11.68;;;4.40;;
74371;SDS011;62885;51.374;6.170;2024-02-21T05:50:09;11.82;;;4.85;;
74371;SDS011;62885;51.374;6.170;2024-02-21T05:52:37;10.52;;;3.80;;
74371;SDS011;62885;51.374;6.170;2024-02-21T05:55:02;12.65;;;4.55;;
74371;SDS011;62885;51.374;6.170;2024-02-21T05:57:28;12.32;;;4.15;;
74371;SDS011;62885;51.374;6.170;2024-02-21T05:59:54;17.40;;;4.70;;
74371;SDS011;62885;51.374;6.170;2024-02-21T06:02:19;10.90;;;3.92;;
74371;SDS011;62885;51.374;6.170;2024-02-21T06:04:45;12.52;;;3.72;;
74371;SDS011;62885;51.374;6.170;2024-02-21T06:07:11;12.65;;;4.68;;
74371;SDS011;62885;51.374;6.170;2024-02-21T06:09:36;12.05;;;4.65;;
74371;SDS011;62885;51.374;6.170;2024-02-21T06:12:02;9.63;;;3.75;;
74371;SDS011;62885;51.374;6.170;2024-02-21T06:14:28;15.27;;;4.43;;
74371;SDS011;62885;51.374;6.170;2024-02-21T06:16:53;12.45;;;4.00;;
74371;SDS011;62885;51.374;6.170;2024-02-21T06:19:18;8.43;;;3.87;;
74371;SDS011;62885;51.374;6.170;2024-02-21T06:21:44;11.75;;;4.75;;
74371;SDS011;62885;51.374;6.170;2024-02-21T06:24:09;9.90;;;4.15;;
74371;SDS011;62885;51.374;6.170;2024-02-21T06:26:34;13.82;;;3.55;;
74371;SDS011;62885;51.374;6.170;2024-02-21T06:29:00;19.00;;;8.43;;
74371;SDS011;62885;51.374;6.170;2024-02-21T06:31:26;11.93;;;5.07;;
74371;SDS011;62885;51.374;6.170;2024-02-21T06:33:52;8.38;;;4.10;;
74371;SDS011;62885;51.374;6.170;2024-02-21T06:36:18;12.70;;;4.22;;
74371;SDS011;62885;51.374;6.170;2024-02-21T06:38:43;9.18;;;3.38;;
74371;SDS011;62885;51.374;6.170;2024-02-21T06:41:18;13.65;;;3.97;;
74371;SDS011;62885;51.374;6.170;2024-02-21T06:43:44;10.13;;;4.53;;
74371;SDS011;62885;51.374;6.170;2024-02-21T06:46:11;9.57;;;4.22;;
74371;SDS011;62885;51.374;6.170;2024-02-21T06:48:36;14.05;;;4.18;;
74371;SDS011;62885;51.374;6.170;2024-02-21T06:51:02;8.18;;;3.33;;
74371;SDS011;62885;51.374;6.170;2024-02-21T06:53:28;10.35;;;4.10;;
74371;SDS011;62885;51.374;6.170;2024-02-21T06:55:54;11.90;;;3.92;;
74371;SDS011;62885;51.374;6.170;2024-02-21T06:58:19;10.80;;;3.70;;
74371;SDS011;62885;51.374;6.170;2024-02-21T07:00:44;10.13;;;4.05;;
74371;SDS011;62885;51.374;6.170;2024-02-21T07:03:10;11.40;;;4.15;;
74371;SDS011;62885;51.374;6.170;2024-02-21T07:05:35;10.55;;;3.80;;
74371;SDS011;62885;51.374;6.170;2024-02-21T07:08:01;9.27;;;3.58;;
74371;SDS011;62885;51.374;6.170;2024-02-21T07:10:26;10.30;;;3.47;;
74371;SDS011;62885;51.374;6.170;2024-02-21T07:12:54;10.93;;;3.90;;
74371;SDS011;62885;51.374;6.170;2024-02-21T07:15:19;10.90;;;3.72;;
74371;SDS011;62885;51.374;6.170;2024-02-21T07:17:45;8.68;;;4.13;;
74371;SDS011;62885;51.374;6.170;2024-02-21T07:20:10;8.88;;;3.85;;
74371;SDS011;62885;51.374;6.170;2024-02-21T07:22:36;9.32;;;3.65;;
74371;SDS011;62885;51.374;6.170;2024-02-21T07:25:01;9.43;;;3.50;;
74371;SDS011;62885;51.374;6.170;2024-02-21T07:27:27;10.60;;;3.85;;
74371;SDS011;62885;51.374;6.170;2024-02-21T07:29:55;10.75;;;4.20;;
74371;SDS011;62885;51.374;6.170;2024-02-21T07:32:21;10.73;;;3.70;;
74371;SDS011;62885;51.374;6.170;2024-02-21T07:34:46;8.98;;;3.58;;
74371;SDS011;62885;51.374;6.170;2024-02-21T07:37:12;10.35;;;4.20;;
74371;SDS011;62885;51.374;6.170;2024-02-21T07:39:39;6.97;;;3.55;;
74371;SDS011;62885;51.374;6.170;2024-02-21T07:42:05;10.02;;;3.47;;
74371;SDS011;62885;51.374;6.170;2024-02-21T07:44:31;9.57;;;4.53;;
74371;SDS011;62885;51.374;6.170;2024-02-21T07:46:57;11.98;;;4.03;;
74371;SDS011;62885;51.374;6.170;2024-02-21T07:49:23;7.72;;;3.60;;
74371;SDS011;62885;51.374;6.170;2024-02-21T07:51:48;12.65;;;3.90;;
74371;SDS011;62885;51.374;6.170;2024-02-21T07:54:13;8.20;;;3.63;;
74371;SDS011;62885;51.374;6.170;2024-02-21T07:56:39;10.35;;;3.83;;
74371;SDS011;62885;51.374;6.170;2024-02-21T07:59:04;9.82;;;4.47;;
74371;SDS011;62885;51.374;6.170;2024-02-21T08:01:30;8.63;;;3.85;;
74371;SDS011;62885;51.374;6.170;2024-02-21T08:03:55;7.75;;;3.42;;
74371;SDS011;62885;51.374;6.170;2024-02-21T08:06:20;13.82;;;3.75;;
74371;SDS011;62885;51.374;6.170;2024-02-21T08:08:46;7.22;;;3.45;;
74371;SDS011;62885;51.374;6.170;2024-02-21T08:11:11;10.80;;;3.78;;
74371;SDS011;62885;51.374;6.170;2024-02-21T08:13:36;7.90;;;2.83;;
74371;SDS011;62885;51.374;6.170;2024-02-21T08:16:02;10.07;;;3.40;;
74371;SDS011;62885;51.374;6.170;2024-02-21T08:18:28;10.52;;;2.90;;
74371;SDS011;62885;51.374;6.170;2024-02-21T08:20:53;8.95;;;3.40;;
74371;SDS011;62885;51.374;6.170;2024-02-21T08:23:19;11.70;;;3.28;;
74371;SDS011;62885;51.374;6.170;2024-02-21T08:25:44;10.02;;;3.53;;
74371;SDS011;62885;51.374;6.170;2024-02-21T08:28:09;7.80;;;3.47;;
74371;SDS011;62885;51.374;6.170;2024-02-21T08:30:35;9.98;;;2.83;;
74371;SDS011;62885;51.374;6.170;2024-02-21T08:33:00;6.45;;;2.78;;
74371;SDS011;62885;51.374;6.170;2024-02-21T08:35:25;9.05;;;3.67;;
74371;SDS011;62885;51.374;6.170;2024-02-21T08:37:51;10.10;;;3.72;;
74371;SDS011;62885;51.374;6.170;2024-02-21T08:40:16;7.30;;;3.08;;
74371;SDS011;62885;51.374;6.170;2024-02-21T08:42:46;7.38;;;3.15;;
74371;SDS011;62885;51.374;6.170;2024-02-21T08:45:12;9.65;;;3.60;;
74371;SDS011;62885;51.374;6.170;2024-02-21T08:47:40;9.35;;;3.20;;
74371;SDS011;62885;51.374;6.170;2024-02-21T08:50:06;8.13;;;3.60;;
74371;SDS011;62885;51.374;6.170;2024-02-21T08:52:34;8.98;;;3.60;;
74371;SDS011;62885;51.374;6.170;2024-02-21T08:54:59;9.75;;;3.67;;
74371;SDS011;62885;51.374;6.170;2024-02-21T08:57:25;7.68;;;3.53;;
74371;SDS011;62885;51.374;6.170;2024-02-21T08:59:50;9.55;;;3.55;;
74371;SDS011;62885;51.374;6.170;2024-02-21T09:02:16;10.35;;;3.50;;
74371;SDS011;62885;51.374;6.170;2024-02-21T09:04:41;13.98;;;4.03;;
74371;SDS011;62885;51.374;6.170;2024-02-21T09:07:07;10.10;;;3.70;;
74371;SDS011;62885;51.374;6.170;2024-02-21T09:09:32;11.10;;;4.05;;
74371;SDS011;62885;51.374;6.170;2024-02-21T09:11:58;9.63;;;3.70;;
74371;SDS011;62885;51.374;6.170;2024-02-21T09:14:30;8.73;;;3.67;;
74371;SDS011;62885;51.374;6.170;2024-02-21T09:16:59;9.77;;;3.95;;
74371;SDS011;62885;51.374;6.170;2024-02-21T09:19:24;6.70;;;3.55;;
74371;SDS011;62885;51.374;6.170;2024-02-21T09:21:49;9.82;;;3.10;;
74371;SDS011;62885;51.374;6.170;2024-02-21T09:24:15;9.95;;;3.72;;
74371;SDS011;62885;51.374;6.170;2024-02-21T09:26:40;13.75;;;3.40;;
74371;SDS011;62885;51.374;6.170;2024-02-21T09:29:06;10.00;;;3.35;;
74371;SDS011;62885;51.374;6.170;2024-02-21T09:31:31;8.25;;;3.55;;
74371;SDS011;62885;51.374;6.170;2024-02-21T09:33:56;7.93;;;3.30;;
74371;SDS011;62885;51.374;6.170;2024-02-21T09:36:22;10.77;;;3.53;;
74371;SDS011;62885;51.374;6.170;2024-02-21T09:38:47;9.93;;;4.60;;
74371;SDS011;62885;51.374;6.170;2024-02-21T09:43:50;11.00;;;3.63;;
74371;SDS011;62885;51.374;6.170;2024-02-21T09:46:18;9.20;;;3.10;;
74371;SDS011;62885;51.374;6.170;2024-02-21T09:49:04;9.63;;;3.22;;
74371;SDS011;62885;51.374;6.170;2024-02-21T09:51:41;12.02;;;7.47;;
74371;SDS011;62885;51.374;6.170;2024-02-21T09:54:07;9.90;;;3.67;;
74371;SDS011;62885;51.374;6.170;2024-02-21T09:56:33;9.13;;;4.47;;
74371;SDS011;62885;51.374;6.170;2024-02-21T09:58:58;6.40;;;2.85;;
74371;SDS011;62885;51.374;6.170;2024-02-21T10:01:24;8.43;;;3.08;;
74371;SDS011;62885;51.374;6.170;2024-02-21T10:03:50;13.68;;;4.78;;
74371;SDS011;62885;51.374;6.170;2024-02-21T10:06:16;8.57;;;3.10;;
74371;SDS011;62885;51.374;6.170;2024-02-21T10:08:41;7.25;;;2.97;;
74371;SDS011;62885;51.374;6.170;2024-02-21T10:11:06;7.15;;;2.65;;
74371;SDS011;62885;51.374;6.170;2024-02-21T10:13:34;11.25;;;2.92;;
74371;SDS011;62885;51.374;6.170;2024-02-21T10:16:03;8.43;;;4.18;;
74371;SDS011;62885;51.374;6.170;2024-02-21T10:18:29;7.40;;;2.97;;
74371;SDS011;62885;51.374;6.170;2024-02-21T10:21:02;9.40;;;3.20;;
74371;SDS011;62885;51.374;6.170;2024-02-21T10:23:28;10.18;;;3.33;;
74371;SDS011;62885;51.374;6.170;2024-02-21T10:25:54;7.72;;;2.45;;
74371;SDS011;62885;51.374;6.170;2024-02-21T10:28:19;8.07;;;3.08;;
74371;SDS011;62885;51.374;6.170;2024-02-21T10:30:51;6.55;;;2.63;;
74371;SDS011;62885;51.374;6.170;2024-02-21T10:33:17;6.75;;;2.65;;
74371;SDS011;62885;51.374;6.170;2024-02-21T10:35:45;6.43;;;2.42;;
74371;SDS011;62885;51.374;6.170;2024-02-21T10:38:12;8.40;;;2.67;;
74371;SDS011;62885;51.374;6.170;2024-02-21T10:40:38;6.45;;;2.40;;
74371;SDS011;62885;51.374;6.170;2024-02-21T10:43:03;8.93;;;2.33;;
74371;SDS011;62885;51.374;6.170;2024-02-21T10:45:35;5.20;;;2.53;;
74371;SDS011;62885;51.374;6.170;2024-02-21T10:50:38;6.90;;;2.45;;
74371;SDS011;62885;51.374;6.170;2024-02-21T10:53:34;9.73;;;2.80;;
74371;SDS011;62885;51.374;6.170;2024-02-21T10:56:11;7.88;;;2.72;;
74371;SDS011;62885;51.374;6.170;2024-02-21T11:01:09;8.05;;;2.85;;
74371;SDS011;62885;51.374;6.170;2024-02-21T11:03:34;8.27;;;2.60;;
74371;SDS011;62885;51.374;6.170;2024-02-21T11:06:01;6.40;;;2.50;;
74371;SDS011;62885;51.374;6.170;2024-02-21T11:08:27;5.47;;;2.58;;
74371;SDS011;62885;51.374;6.170;2024-02-21T11:10:56;8.82;;;2.40;;
74371;SDS011;62885;51.374;6.170;2024-02-21T11:13:30;10.13;;;2.95;;
74371;SDS011;62885;51.374;6.170;2024-02-21T11:16:05;8.85;;;2.65;;
74371;SDS011;62885;51.374;6.170;2024-02-21T11:18:34;9.18;;;2.95;;
74371;SDS011;62885;51.374;6.170;2024-02-21T11:20:59;6.18;;;2.28;;
74371;SDS011;62885;51.374;6.170;2024-02-21T11:23:28;8.27;;;2.63;;
74371;SDS011;62885;51.374;6.170;2024-02-21T11:26:03;13.05;;;3.72;;
74371;SDS011;62885;51.374;6.170;2024-02-21T11:28:32;7.75;;;2.85;;
74371;SDS011;62885;51.374;6.170;2024-02-21T11:31:13;5.93;;;2.30;;
74371;SDS011;62885;51.374;6.170;2024-02-21T11:33:42;4.38;;;2.45;;
74371;SDS011;62885;51.374;6.170;2024-02-21T11:36:11;8.52;;;2.65;;
74371;SDS011;62885;51.374;6.170;2024-02-21T11:38:51;6.78;;;2.97;;
74371;SDS011;62885;51.374;6.170;2024-02-21T11:41:18;7.55;;;2.72;;
74371;SDS011;62885;51.374;6.170;2024-02-21T11:43:43;5.22;;;2.22;;
74371;SDS011;62885;51.374;6.170;2024-02-21T11:46:08;7.77;;;2.43;;
74371;SDS011;62885;51.374;6.170;2024-02-21T11:48:34;12.25;;;3.30;;
74371;SDS011;62885;51.374;6.170;2024-02-21T11:50:59;5.88;;;2.60;;
74371;SDS011;62885;51.374;6.170;2024-02-21T11:53:25;9.35;;;2.47;;
74371;SDS011;62885;51.374;6.170;2024-02-21T11:55:55;6.35;;;2.40;;
74371;SDS011;62885;51.374;6.170;2024-02-21T11:58:22;8.95;;;3.00;;
74371;SDS011;62885;51.374;6.170;2024-02-21T12:00:47;11.75;;;2.95;;
74371;SDS011;62885;51.374;6.170;2024-02-21T12:03:13;9.25;;;3.78;;
74371;SDS011;62885;51.374;6.170;2024-02-21T12:05:39;9.52;;;3.28;;
74371;SDS011;62885;51.374;6.170;2024-02-21T12:08:06;11.13;;;3.30;;
74371;SDS011;62885;51.374;6.170;2024-02-21T12:10:31;7.97;;;2.58;;
74371;SDS011;62885;51.374;6.170;2024-02-21T12:13:08;8.23;;;4.30;;
74371;SDS011;62885;51.374;6.170;2024-02-21T12:15:33;8.65;;;3.00;;
74371;SDS011;62885;51.374;6.170;2024-02-21T12:17:59;7.22;;;2.92;;
74371;SDS011;62885;51.374;6.170;2024-02-21T12:20:25;8.45;;;2.97;;
74371;SDS011;62885;51.374;6.170;2024-02-21T12:22:51;6.18;;;3.13;;
74371;SDS011;62885;51.374;6.170;2024-02-21T12:25:18;7.85;;;3.47;;
74371;SDS011;62885;51.374;6.170;2024-02-21T12:27:45;6.80;;;2.70;;
74371;SDS011;62885;51.374;6.170;2024-02-21T12:30:11;8.20;;;2.92;;
74371;SDS011;62885;51.374;6.170;2024-02-21T12:32:36;7.53;;;3.15;;
74371;SDS011;62885;51.374;6.170;2024-02-21T12:35:02;7.13;;;2.50;;
74371;SDS011;62885;51.374;6.170;2024-02-21T12:37:28;9.55;;;2.97;;
74371;SDS011;62885;51.374;6.170;2024-02-21T12:39:53;8.88;;;2.47;;
74371;SDS011;62885;51.374;6.170;2024-02-21T12:42:19;8.63;;;3.15;;
74371;SDS011;62885;51.374;6.170;2024-02-21T12:44:44;6.88;;;3.00;;
74371;SDS011;62885;51.374;6.170;2024-02-21T12:47:10;6.78;;;3.00;;
74371;SDS011;62885;51.374;6.170;2024-02-21T12:49:36;5.75;;;2.50;;
74371;SDS011;62885;51.374;6.170;2024-02-21T12:52:01;6.72;;;2.30;;
74371;SDS011;62885;51.374;6.170;2024-02-21T12:54:28;6.85;;;3.17;;
74371;SDS011;62885;51.374;6.170;2024-02-21T12:56:55;6.57;;;2.40;;
74371;SDS011;62885;51.374;6.170;2024-02-21T12:59:20;7.32;;;2.90;;
74371;SDS011;62885;51.374;6.170;2024-02-21T13:01:46;7.20;;;3.25;;
74371;SDS011;62885;51.374;6.170;2024-02-21T13:04:11;7.43;;;2.72;;
74371;SDS011;62885;51.374;6.170;2024-02-21T13:06:36;4.80;;;2.35;;
74371;SDS011;62885;51.374;6.170;2024-02-21T13:09:02;5.18;;;2.72;;
74371;SDS011;62885;51.374;6.170;2024-02-21T13:11:28;7.57;;;2.50;;
74371;SDS011;62885;51.374;6.170;2024-02-21T13:13:56;10.63;;;2.78;;
74371;SDS011;62885;51.374;6.170;2024-02-21T13:16:21;8.13;;;2.50;;
74371;SDS011;62885;51.374;6.170;2024-02-21T13:18:47;8.40;;;2.88;;
74371;SDS011;62885;51.374;6.170;2024-02-21T13:21:13;7.30;;;3.00;;
74371;SDS011;62885;51.374;6.170;2024-02-21T13:23:39;8.00;;;2.67;;
74371;SDS011;62885;51.374;6.170;2024-02-21T13:26:05;8.57;;;2.95;;
74371;SDS011;62885;51.374;6.170;2024-02-21T13:28:30;8.80;;;2.72;;
74371;SDS011;62885;51.374;6.170;2024-02-21T13:30:56;7.10;;;2.50;;
74371;SDS011;62885;51.374;6.170;2024-02-21T13:33:22;9.05;;;3.08;;
74371;SDS011;62885;51.374;6.170;2024-02-21T13:35:47;6.35;;;2.75;;
74371;SDS011;62885;51.374;6.170;2024-02-21T13:38:13;8.35;;;2.15;;
74371;SDS011;62885;51.374;6.170;2024-02-21T13:40:39;6.25;;;2.13;;
74371;SDS011;62885;51.374;6.170;2024-02-21T13:43:04;11.68;;;2.75;;
74371;SDS011;62885;51.374;6.170;2024-02-21T13:45:30;9.10;;;2.78;;
74371;SDS011;62885;51.374;6.170;2024-02-21T13:47:56;5.38;;;2.30;;
74371;SDS011;62885;51.374;6.170;2024-02-21T13:50:23;8.63;;;2.45;;
74371;SDS011;62885;51.374;6.170;2024-02-21T13:52:56;8.55;;;2.55;;
74371;SDS011;62885;51.374;6.170;2024-02-21T13:55:21;6.70;;;2.47;;
74371;SDS011;62885;51.374;6.170;2024-02-21T13:57:52;9.48;;;2.60;;
74371;SDS011;62885;51.374;6.170;2024-02-21T14:00:18;7.70;;;2.22;;
74371;SDS011;62885;51.374;6.170;2024-02-21T14:02:45;8.32;;;2.35;;
74371;SDS011;62885;51.374;6.170;2024-02-21T14:05:10;5.72;;;2.10;;
74371;SDS011;62885;51.374;6.170;2024-02-21T14:07:36;5.15;;;2.17;;
74371;SDS011;62885;51.374;6.170;2024-02-21T14:10:01;9.82;;;2.80;;
74371;SDS011;62885;51.374;6.170;2024-02-21T14:12:27;7.60;;;2.58;;
74371;SDS011;62885;51.374;6.170;2024-02-21T14:14:52;6.65;;;2.20;;
74371;SDS011;62885;51.374;6.170;2024-02-21T14:17:18;7.18;;;2.40;;
74371;SDS011;62885;51.374;6.170;2024-02-21T14:19:43;6.75;;;2.05;;
74371;SDS011;62885;51.374;6.170;2024-02-21T14:22:09;8.95;;;3.17;;
74371;SDS011;62885;51.374;6.170;2024-02-21T14:24:36;5.90;;;1.98;;
74371;SDS011;62885;51.374;6.170;2024-02-21T14:27:01;7.20;;;2.67;;
74371;SDS011;62885;51.374;6.170;2024-02-21T14:29:28;6.75;;;2.40;;
74371;SDS011;62885;51.374;6.170;2024-02-21T14:31:54;5.93;;;2.28;;
74371;SDS011;62885;51.374;6.170;2024-02-21T14:34:19;8.00;;;2.67;;
74371;SDS011;62885;51.374;6.170;2024-02-21T14:36:45;6.28;;;2.40;;
74371;SDS011;62885;51.374;6.170;2024-02-21T14:39:10;7.28;;;2.45;;
74371;SDS011;62885;51.374;6.170;2024-02-21T14:41:35;8.77;;;2.78;;
74371;SDS011;62885;51.374;6.170;2024-02-21T14:44:01;8.85;;;3.55;;
74371;SDS011;62885;51.374;6.170;2024-02-21T14:46:28;9.57;;;4.30;;